sensor_id;sensor_type;location;lat;lon;timestamp;pressure;altitude;pressure_sealevel;temperature
41654;BMP280;30790;52.030;7.110;2022-08-21T00:00:46;100986.63;;;23.52
41654;BMP280;30790;52.030;7.110;2022-08-21T00:03:13;100983.84;;;23.47
41654;BMP280;30790;52.030;7.110;2022-08-21T00:05:42;100984.97;;;23.51
41654;BMP280;30790;52.030;7.110;2022-08-21T00:08:08;100972.28;;;23.40
41654;BMP280;30790;52.030;7.110;2022-08-21T00:10:34;100955.22;;;23.33
41654;BMP280;30790;52.030;7.110;2022-08-21T00:13:01;100954.16;;;23.34
41654;BMP280;30790;52.030;7.110;2022-08-21T00:15:30;100970.69;;;23.49
41654;BMP280;30790;52.030;7.110;2022-08-21T00:17:56;100963.81;;;23.47
41654;BMP280;30790;52.030;7.110;2022-08-21T00:20:22;100964.09;;;23.45
41654;BMP280;30790;52.030;7.110;2022-08-21T00:22:48;100967.97;;;23.49
41654;BMP280;30790;52.030;7.110;2022-08-21T00:25:15;100964.38;;;23.49
41654;BMP280;30790;52.030;7.110;2022-08-21T00:27:41;100966.56;;;23.47
41654;BMP280;30790;52.030;7.110;2022-08-21T00:30:09;100958.09;;;23.48
41654;BMP280;30790;52.030;7.110;2022-08-21T00:32:36;100966.31;;;23.48
41654;BMP280;30790;52.030;7.110;2022-08-21T00:35:04;100954.47;;;23.42
41654;BMP280;30790;52.030;7.110;2022-08-21T00:37:29;100953.41;;;23.43
41654;BMP280;30790;52.030;7.110;2022-08-21T00:39:54;100966.56;;;23.47
41654;BMP280;30790;52.030;7.110;2022-08-21T00:42:20;100953.66;;;23.42
41654;BMP280;30790;52.030;7.110;2022-08-21T00:44:47;100955.00;;;23.39
41654;BMP280;30790;52.030;7.110;2022-08-21T00:47:16;100960.78;;;23.43
41654;BMP280;30790;52.030;7.110;2022-08-21T00:49:41;100969.03;;;23.48
41654;BMP280;30790;52.030;7.110;2022-08-21T00:52:09;100964.88;;;23.40
41654;BMP280;30790;52.030;7.110;2022-08-21T00:54:36;100942.63;;;23.32
41654;BMP280;30790;52.030;7.110;2022-08-21T00:57:07;100960.47;;;23.39
41654;BMP280;30790;52.030;7.110;2022-08-21T00:59:37;100959.19;;;23.47
41654;BMP280;30790;52.030;7.110;2022-08-21T01:02:04;100957.53;;;23.46
41654;BMP280;30790;52.030;7.110;2022-08-21T01:04:30;100953.66;;;23.42
41654;BMP280;30790;52.030;7.110;2022-08-21T01:06:56;100952.31;;;23.44
41654;BMP280;30790;52.030;7.110;2022-08-21T01:09:21;100950.34;;;23.40
41654;BMP280;30790;52.030;7.110;2022-08-21T01:11:47;100955.56;;;23.41
41654;BMP280;30790;52.030;7.110;2022-08-21T01:14:13;100953.66;;;23.42
41654;BMP280;30790;52.030;7.110;2022-08-21T01:16:44;100964.91;;;23.46
41654;BMP280;30790;52.030;7.110;2022-08-21T01:19:10;100962.13;;;23.40
41654;BMP280;30790;52.030;7.110;2022-08-21T01:21:36;100976.69;;;23.46
41654;BMP280;30790;52.030;7.110;2022-08-21T01:24:01;100962.41;;;23.39
41654;BMP280;30790;52.030;7.110;2022-08-21T01:26:30;100976.69;;;23.46
41654;BMP280;30790;52.030;7.110;2022-08-21T01:29:16;100956.63;;;23.35
41654;BMP280;30790;52.030;7.110;2022-08-21T01:31:45;100961.88;;;23.42
41654;BMP280;30790;52.030;7.110;2022-08-21T01:34:11;100961.31;;;23.40
41654;BMP280;30790;52.030;7.110;2022-08-21T01:36:36;100969.56;;;23.45
41654;BMP280;30790;52.030;7.110;2022-08-21T01:39:03;100972.31;;;23.45
41654;BMP280;30790;52.030;7.110;2022-08-21T01:41:29;100958.84;;;23.38
41654;BMP280;30790;52.030;7.110;2022-08-21T01:43:54;100960.22;;;23.41
41654;BMP280;30790;52.030;7.110;2022-08-21T01:46:19;100958.00;;;23.38
41654;BMP280;30790;52.030;7.110;2022-08-21T01:48:45;100960.75;;;23.38
41654;BMP280;30790;52.030;7.110;2022-08-21T01:51:10;100961.63;;;23.43
41654;BMP280;30790;52.030;7.110;2022-08-21T01:53:36;100961.31;;;23.40
41654;BMP280;30790;52.030;7.110;2022-08-21T01:56:04;100955.31;;;23.43
41654;BMP280;30790;52.030;7.110;2022-08-21T01:58:30;100949.22;;;23.36
41654;BMP280;30790;52.030;7.110;2022-08-21T02:00:55;100950.06;;;23.36
41654;BMP280;30790;52.030;7.110;2022-08-21T02:03:20;100965.44;;;23.42
41654;BMP280;30790;52.030;7.110;2022-08-21T02:05:46;100946.75;;;23.34
41654;BMP280;30790;52.030;7.110;2022-08-21T02:08:11;100947.06;;;23.38
41654;BMP280;30790;52.030;7.110;2022-08-21T02:10:37;100941.84;;;23.36
41654;BMP280;30790;52.030;7.110;2022-08-21T02:13:02;100946.78;;;23.39
41654;BMP280;30790;52.030;7.110;2022-08-21T02:15:28;100948.75;;;23.44
41654;BMP280;30790;52.030;7.110;2022-08-21T02:17:58;100925.03;;;23.28
41654;BMP280;30790;52.030;7.110;2022-08-21T02:20:44;100948.19;;;23.42
41654;BMP280;30790;52.030;7.110;2022-08-21T02:23:12;100942.91;;;23.35
41654;BMP280;30790;52.030;7.110;2022-08-21T02:25:38;100939.91;;;23.37
41654;BMP280;30790;52.030;7.110;2022-08-21T02:28:07;100946.53;;;23.41
41654;BMP280;30790;52.030;7.110;2022-08-21T02:30:36;100952.84;;;23.41
41654;BMP280;30790;52.030;7.110;2022-08-21T02:33:06;100943.50;;;23.37
41654;BMP280;30790;52.030;7.110;2022-08-21T02:35:31;100944.88;;;23.40
41654;BMP280;30790;52.030;7.110;2022-08-21T02:37:59;100942.97;;;23.40
41654;BMP280;30790;52.030;7.110;2022-08-21T02:40:29;100945.97;;;23.39
41654;BMP280;30790;52.030;7.110;2022-08-21T02:42:56;100928.09;;;23.31
41654;BMP280;30790;52.030;7.110;2022-08-21T02:45:21;100939.88;;;23.32
41654;BMP280;30790;52.030;7.110;2022-08-21T02:47:52;100942.91;;;23.35
41654;BMP280;30790;52.030;7.110;2022-08-21T02:50:27;100945.97;;;23.39
41654;BMP280;30790;52.030;7.110;2022-08-21T02:52:53;100944.88;;;23.40
41654;BMP280;30790;52.030;7.110;2022-08-21T02:55:20;100934.97;;;23.34
41654;BMP280;30790;52.030;7.110;2022-08-21T02:57:46;100922.28;;;23.28
41654;BMP280;30790;52.030;7.110;2022-08-21T03:00:12;100944.03;;;23.39
41654;BMP280;30790;52.030;7.110;2022-08-21T03:02:38;100927.84;;;23.33
41654;BMP280;30790;52.030;7.110;2022-08-21T03:05:06;100926.75;;;23.34
41654;BMP280;30790;52.030;7.110;2022-08-21T03:07:32;100926.75;;;23.34
41654;BMP280;30790;52.030;7.110;2022-08-21T03:09:58;100924.53;;;23.31
41654;BMP280;30790;52.030;7.110;2022-08-21T03:12:24;100922.34;;;23.33
41654;BMP280;30790;52.030;7.110;2022-08-21T03:14:49;100927.00;;;23.32
41654;BMP280;30790;52.030;7.110;2022-08-21T03:17:15;100928.13;;;23.36
41654;BMP280;30790;52.030;7.110;2022-08-21T03:19:40;100914.66;;;23.30
41654;BMP280;30790;52.030;7.110;2022-08-21T03:22:05;100923.44;;;23.32
41654;BMP280;30790;52.030;7.110;2022-08-21T03:24:31;100910.78;;;23.26
41654;BMP280;30790;52.030;7.110;2022-08-21T03:26:56;100922.28;;;23.28
41654;BMP280;30790;52.030;7.110;2022-08-21T03:29:22;100928.94;;;23.32
41654;BMP280;30790;52.030;7.110;2022-08-21T03:31:47;100928.66;;;23.33
41654;BMP280;30790;52.030;7.110;2022-08-21T03:34:12;100927.84;;;23.33
41654;BMP280;30790;52.030;7.110;2022-08-21T03:36:38;100916.25;;;23.26
41654;BMP280;30790;52.030;7.110;2022-08-21T03:39:03;100919.31;;;23.29
41654;BMP280;30790;52.030;7.110;2022-08-21T03:41:29;100921.47;;;23.27
41654;BMP280;30790;52.030;7.110;2022-08-21T03:43:54;100912.41;;;23.27
41654;BMP280;30790;52.030;7.110;2022-08-21T03:46:20;100930.00;;;23.31
41654;BMP280;30790;52.030;7.110;2022-08-21T03:48:45;100917.41;;;23.30
41654;BMP280;30790;52.030;7.110;2022-08-21T03:51:11;100909.69;;;23.27
41654;BMP280;30790;52.030;7.110;2022-08-21T03:53:37;100921.22;;;23.29
41654;BMP280;30790;52.030;7.110;2022-08-21T03:56:03;100922.88;;;23.30
41654;BMP280;30790;52.030;7.110;2022-08-21T03:58:29;100912.94;;;23.24
41654;BMP280;30790;52.030;7.110;2022-08-21T04:00:58;100927.84;;;23.33
41654;BMP280;30790;52.030;7.110;2022-08-21T04:03:25;100934.97;;;23.34
41654;BMP280;30790;52.030;7.110;2022-08-21T04:05:51;100923.13;;;23.28
41654;BMP280;30790;52.030;7.110;2022-08-21T04:08:17;100937.16;;;23.32
41654;BMP280;30790;52.030;7.110;2022-08-21T04:10:45;100941.78;;;23.31
41654;BMP280;30790;52.030;7.110;2022-08-21T04:13:11;100954.41;;;23.32
41654;BMP280;30790;52.030;7.110;2022-08-21T04:15:36;100936.50;;;23.25
41654;BMP280;30790;52.030;7.110;2022-08-21T04:18:03;100947.28;;;23.31
41654;BMP280;30790;52.030;7.110;2022-08-21T04:20:28;100934.84;;;23.24
41654;BMP280;30790;52.030;7.110;2022-08-21T04:22:54;100932.63;;;23.21
41654;BMP280;30790;52.030;7.110;2022-08-21T04:25:21;100950.28;;;23.30
41654;BMP280;30790;52.030;7.110;2022-08-21T04:27:47;100947.53;;;23.30
41654;BMP280;30790;52.030;7.110;2022-08-21T04:30:14;100944.78;;;23.30
41654;BMP280;30790;52.030;7.110;2022-08-21T04:32:46;100934.84;;;23.24
41654;BMP280;30790;52.030;7.110;2022-08-21T04:35:14;100943.97;;;23.29
41654;BMP280;30790;52.030;7.110;2022-08-21T04:37:40;100941.16;;;23.24
41654;BMP280;30790;52.030;7.110;2022-08-21T04:40:06;100949.44;;;23.29
41654;BMP280;30790;52.030;7.110;2022-08-21T04:42:32;100947.97;;;23.22
41654;BMP280;30790;52.030;7.110;2022-08-21T04:44:57;100942.81;;;23.25
41654;BMP280;30790;52.030;7.110;2022-08-21T04:47:23;100933.72;;;23.20
41654;BMP280;30790;52.030;7.110;2022-08-21T04:49:49;100932.34;;;23.17
41654;BMP280;30790;52.030;7.110;2022-08-21T04:52:18;100941.16;;;23.24
41654;BMP280;30790;52.030;7.110;2022-08-21T04:54:45;100950.50;;;23.28
41654;BMP280;30790;52.030;7.110;2022-08-21T04:57:13;100938.13;;;23.21
41654;BMP280;30790;52.030;7.110;2022-08-21T04:59:45;100939.22;;;23.20
41654;BMP280;30790;52.030;7.110;2022-08-21T05:02:11;100931.50;;;23.17
41654;BMP280;30790;52.030;7.110;2022-08-21T05:04:42;100937.28;;;23.20
41654;BMP280;30790;52.030;7.110;2022-08-21T05:07:19;100950.72;;;23.22
41654;BMP280;30790;52.030;7.110;2022-08-21T05:09:45;100950.47;;;23.23
41654;BMP280;30790;52.030;7.110;2022-08-21T05:12:11;100958.41;;;23.25
41654;BMP280;30790;52.030;7.110;2022-08-21T05:14:37;100944.97;;;23.23
41654;BMP280;30790;52.030;7.110;2022-08-21T05:17:02;100940.00;;;23.15
41654;BMP280;30790;52.030;7.110;2022-08-21T05:19:27;100947.69;;;23.18
41654;BMP280;30790;52.030;7.110;2022-08-21T05:21:53;100945.19;;;23.17
41654;BMP280;30790;52.030;7.110;2022-08-21T05:24:19;100948.56;;;23.24
41654;BMP280;30790;52.030;7.110;2022-08-21T05:26:44;100932.03;;;23.13
41654;BMP280;30790;52.030;7.110;2022-08-21T05:29:11;100937.00;;;23.17
41654;BMP280;30790;52.030;7.110;2022-08-21T05:31:38;100935.59;;;23.14
41654;BMP280;30790;52.030;7.110;2022-08-21T05:34:03;100943.56;;;23.16
41654;BMP280;30790;52.030;7.110;2022-08-21T05:36:29;100942.72;;;23.15
41654;BMP280;30790;52.030;7.110;2022-08-21T05:38:54;100951.72;;;23.10
41654;BMP280;30790;52.030;7.110;2022-08-21T05:41:20;100945.69;;;23.08
41654;BMP280;30790;52.030;7.110;2022-08-21T05:43:46;100948.41;;;23.08
41654;BMP280;30790;52.030;7.110;2022-08-21T05:46:11;100944.28;;;23.06
41654;BMP280;30790;52.030;7.110;2022-08-21T05:48:37;100950.06;;;23.09
41654;BMP280;30790;52.030;7.110;2022-08-21T05:51:11;100964.31;;;23.11
41654;BMP280;30790;52.030;7.110;2022-08-21T05:53:37;100932.38;;;22.95
41654;BMP280;30790;52.030;7.110;2022-08-21T05:56:03;100945.19;;;22.90
41654;BMP280;30790;52.030;7.110;2022-08-21T05:58:30;100938.84;;;22.84
41654;BMP280;30790;52.030;7.110;2022-08-21T06:00:55;100950.81;;;22.78
41654;BMP280;30790;52.030;7.110;2022-08-21T06:03:24;100961.66;;;22.73
41654;BMP280;30790;52.030;7.110;2022-08-21T06:05:50;100958.03;;;22.67
41654;BMP280;30790;52.030;7.110;2022-08-21T06:08:17;100957.47;;;22.65
41654;BMP280;30790;52.030;7.110;2022-08-21T06:10:43;100959.91;;;22.62
41654;BMP280;30790;52.030;7.110;2022-08-21T06:13:09;100947.00;;;22.57
41654;BMP280;30790;52.030;7.110;2022-08-21T06:15:34;100951.13;;;22.60
41654;BMP280;30790;52.030;7.110;2022-08-21T06:17:59;100952.72;;;22.56
41654;BMP280;30790;52.030;7.110;2022-08-21T06:20:25;100956.28;;;22.56
41654;BMP280;30790;52.030;7.110;2022-08-21T06:22:50;100949.94;;;22.50
41654;BMP280;30790;52.030;7.110;2022-08-21T06:25:16;100969.59;;;22.47
41654;BMP280;30790;52.030;7.110;2022-08-21T06:27:41;100949.22;;;22.38
41654;BMP280;30790;52.030;7.110;2022-08-21T06:30:07;100947.25;;;22.34
41654;BMP280;30790;52.030;7.110;2022-08-21T06:32:33;100947.63;;;22.42
41654;BMP280;30790;52.030;7.110;2022-08-21T06:34:59;100952.25;;;22.42
41654;BMP280;30790;52.030;7.110;2022-08-21T06:37:24;100945.53;;;22.28
41654;BMP280;30790;52.030;7.110;2022-08-21T06:39:49;100944.69;;;22.27
41654;BMP280;30790;52.030;7.110;2022-08-21T06:42:16;100958.19;;;22.34
41654;BMP280;30790;52.030;7.110;2022-08-21T06:44:42;100949.09;;;22.28
41654;BMP280;30790;52.030;7.110;2022-08-21T06:47:07;100948.56;;;22.31
41654;BMP280;30790;52.030;7.110;2022-08-21T06:49:33;100944.25;;;22.35
41654;BMP280;30790;52.030;7.110;2022-08-21T06:51:58;100936.19;;;22.24
41654;BMP280;30790;52.030;7.110;2022-08-21T06:54:24;100940.38;;;22.31
41654;BMP280;30790;52.030;7.110;2022-08-21T06:56:49;100937.94;;;22.35
41654;BMP280;30790;52.030;7.110;2022-08-21T06:59:14;100948.38;;;22.38
41654;BMP280;30790;52.030;7.110;2022-08-21T07:01:40;100925.88;;;22.31
41654;BMP280;30790;52.030;7.110;2022-08-21T07:04:06;100931.16;;;22.37
41654;BMP280;30790;52.030;7.110;2022-08-21T07:06:31;100914.63;;;22.27
41654;BMP280;30790;52.030;7.110;2022-08-21T07:08:57;100892.69;;;22.22
41654;BMP280;30790;52.030;7.110;2022-08-21T07:11:23;100925.16;;;22.40
41654;BMP280;30790;52.030;7.110;2022-08-21T07:13:49;100929.56;;;22.41
41654;BMP280;30790;52.030;7.110;2022-08-21T07:16:17;100917.41;;;22.32
41654;BMP280;30790;52.030;7.110;2022-08-21T07:18:42;100921.78;;;22.33
41654;BMP280;30790;52.030;7.110;2022-08-21T07:21:07;100921.34;;;22.41
41654;BMP280;30790;52.030;7.110;2022-08-21T07:23:37;100899.34;;;22.31
41654;BMP280;30790;52.030;7.110;2022-08-21T07:26:04;100920.00;;;22.44
41654;BMP280;30790;52.030;7.110;2022-08-21T07:28:29;100914.41;;;22.34
41654;BMP280;30790;52.030;7.110;2022-08-21T07:30:57;100905.38;;;22.33
41654;BMP280;30790;52.030;7.110;2022-08-21T07:33:25;100915.88;;;22.41
41654;BMP280;30790;52.030;7.110;2022-08-21T07:35:50;100915.81;;;22.36
41654;BMP280;30790;52.030;7.110;2022-08-21T07:38:16;100901.84;;;22.33
41654;BMP280;30790;52.030;7.110;2022-08-21T07:40:41;100905.97;;;22.35
41654;BMP280;30790;52.030;7.110;2022-08-21T07:43:07;100912.31;;;22.41
41654;BMP280;30790;52.030;7.110;2022-08-21T07:45:33;100905.75;;;22.42
41654;BMP280;30790;52.030;7.110;2022-08-21T07:47:58;100908.81;;;22.45
41654;BMP280;30790;52.030;7.110;2022-08-21T07:50:24;100909.31;;;22.42
41654;BMP280;30790;52.030;7.110;2022-08-21T07:52:50;100908.19;;;22.38
41654;BMP280;30790;52.030;7.110;2022-08-21T07:55:17;100901.56;;;22.34
41654;BMP280;30790;52.030;7.110;2022-08-21T07:57:45;100906.66;;;22.47
41654;BMP280;30790;52.030;7.110;2022-08-21T08:00:14;100912.63;;;22.44
41654;BMP280;30790;52.030;7.110;2022-08-21T08:02:39;100904.63;;;22.38
41654;BMP280;30790;52.030;7.110;2022-08-21T08:05:09;100901.38;;;22.41
41654;BMP280;30790;52.030;7.110;2022-08-21T08:07:35;100901.84;;;22.33
41654;BMP280;30790;52.030;7.110;2022-08-21T08:10:01;100919.13;;;22.38
41654;BMP280;30790;52.030;7.110;2022-08-21T08:12:27;100915.75;;;22.31
41654;BMP280;30790;52.030;7.110;2022-08-21T08:14:58;100916.91;;;22.35
41654;BMP280;30790;52.030;7.110;2022-08-21T08:17:25;100915.75;;;22.31
41654;BMP280;30790;52.030;7.110;2022-08-21T08:19:50;100905.75;;;22.42
41654;BMP280;30790;52.030;7.110;2022-08-21T08:22:17;100917.31;;;22.71
41654;BMP280;30790;52.030;7.110;2022-08-21T08:24:45;100909.44;;;22.74
41654;BMP280;30790;52.030;7.110;2022-08-21T08:27:10;100920.38;;;22.74
41654;BMP280;30790;52.030;7.110;2022-08-21T08:29:36;100909.31;;;22.64
41654;BMP280;30790;52.030;7.110;2022-08-21T08:32:03;100919.63;;;22.79
41654;BMP280;30790;52.030;7.110;2022-08-21T08:34:29;100918.22;;;22.76
41654;BMP280;30790;52.030;7.110;2022-08-21T08:36:55;100908.78;;;22.67
41654;BMP280;30790;52.030;7.110;2022-08-21T08:39:22;100914.66;;;22.76
41654;BMP280;30790;52.030;7.110;2022-08-21T08:41:48;100924.34;;;22.84
41654;BMP280;30790;52.030;7.110;2022-08-21T08:44:16;100915.78;;;22.80
41654;BMP280;30790;52.030;7.110;2022-08-21T08:46:44;100917.53;;;22.86
41654;BMP280;30790;52.030;7.110;2022-08-21T08:49:39;100926.81;;;22.85
41654;BMP280;30790;52.030;7.110;2022-08-21T08:52:21;100927.38;;;22.87
41654;BMP280;30790;52.030;7.110;2022-08-21T08:55:01;100910.09;;;22.81
41654;BMP280;30790;52.030;7.110;2022-08-21T08:57:26;100918.03;;;22.83
41654;BMP280;30790;52.030;7.110;2022-08-21T08:59:53;100933.69;;;22.88
41654;BMP280;30790;52.030;7.110;2022-08-21T09:02:21;100916.44;;;22.87
41654;BMP280;30790;52.030;7.110;2022-08-21T09:04:48;100918.59;;;22.85
41654;BMP280;30790;52.030;7.110;2022-08-21T09:10:16;100909.25;;;22.81
41654;BMP280;30790;52.030;7.110;2022-08-21T09:15:23;100916.69;;;22.86
41654;BMP280;30790;52.030;7.110;2022-08-21T09:17:57;100923.00;;;22.86
41654;BMP280;30790;52.030;7.110;2022-08-21T09:20:37;100904.28;;;22.78
41654;BMP280;30790;52.030;7.110;2022-08-21T09:23:43;100917.53;;;22.86
41654;BMP280;30790;52.030;7.110;2022-08-21T09:26:25;100924.66;;;22.87
41654;BMP280;30790;52.030;7.110;2022-08-21T09:28:53;100921.88;;;22.82
41654;BMP280;30790;52.030;7.110;2022-08-21T09:31:25;100910.09;;;22.81
41654;BMP280;30790;52.030;7.110;2022-08-21T09:34:01;100923.00;;;22.86
41654;BMP280;30790;52.030;7.110;2022-08-21T09:36:35;100913.06;;;22.80
41654;BMP280;30790;52.030;7.110;2022-08-21T09:39:02;100901.66;;;22.66
41654;BMP280;30790;52.030;7.110;2022-08-21T09:41:30;100909.44;;;22.74
41654;BMP280;30790;52.030;7.110;2022-08-21T09:43:57;100914.31;;;22.72
41654;BMP280;30790;52.030;7.110;2022-08-21T09:46:26;100904.19;;;22.73
41654;BMP280;30790;52.030;7.110;2022-08-21T09:48:55;100908.84;;;22.72
41654;BMP280;30790;52.030;7.110;2022-08-21T09:51:25;100910.75;;;22.72
41654;BMP280;30790;52.030;7.110;2022-08-21T09:56:34;100905.28;;;22.72
41654;BMP280;30790;52.030;7.110;2022-08-21T09:59:26;100902.50;;;22.67
41654;BMP280;30790;52.030;7.110;2022-08-21T10:01:53;100905.53;;;22.70
41654;BMP280;30790;52.030;7.110;2022-08-21T10:04:22;100887.97;;;22.66
41654;BMP280;30790;52.030;7.110;2022-08-21T10:06:48;100888.75;;;22.62
41654;BMP280;30790;52.030;7.110;2022-08-21T10:09:17;100898.16;;;22.71
41654;BMP280;30790;52.030;7.110;2022-08-21T10:11:52;100899.81;;;22.72
41654;BMP280;30790;52.030;7.110;2022-08-21T10:20:11;100898.97;;;22.71
41654;BMP280;30790;52.030;7.110;2022-08-21T10:25:44;100886.13;;;22.72
41654;BMP280;30790;52.030;7.110;2022-08-21T10:31:14;100896.59;;;22.75
41654;BMP280;30790;52.030;7.110;2022-08-21T10:34:02;100886.19;;;22.77
41654;BMP280;30790;52.030;7.110;2022-08-21T10:36:33;100887.84;;;22.78
41654;BMP280;30790;52.030;7.110;2022-08-21T10:39:33;100888.84;;;22.72
41654;BMP280;30790;52.030;7.110;2022-08-21T10:42:46;100891.56;;;22.67
41654;BMP280;30790;52.030;7.110;2022-08-21T10:45:32;100887.72;;;22.68
41654;BMP280;30790;52.030;7.110;2022-08-21T10:48:05;100893.75;;;22.70
41654;BMP280;30790;52.030;7.110;2022-08-21T10:53:13;100894.84;;;22.69
41654;BMP280;30790;52.030;7.110;2022-08-21T10:55:50;100883.34;;;22.67
41654;BMP280;30790;52.030;7.110;2022-08-21T10:58:23;100884.16;;;22.67
41654;BMP280;30790;52.030;7.110;2022-08-21T11:00:55;100885.00;;;22.68
41654;BMP280;30790;52.030;7.110;2022-08-21T11:03:44;100883.91;;;22.69
41654;BMP280;30790;52.030;7.110;2022-08-21T11:06:25;100883.91;;;22.69
41654;BMP280;30790;52.030;7.110;2022-08-21T11:08:58;100877.59;;;22.68
41654;BMP280;30790;52.030;7.110;2022-08-21T11:11:42;100872.97;;;22.69
41654;BMP280;30790;52.030;7.110;2022-08-21T11:14:28;100878.94;;;22.66
41654;BMP280;30790;52.030;7.110;2022-08-21T11:17:06;100874.63;;;22.70
41654;BMP280;30790;52.030;7.110;2022-08-21T11:19:42;100875.44;;;22.70
41654;BMP280;30790;52.030;7.110;2022-08-21T11:22:35;100874.63;;;22.70
41654;BMP280;30790;52.030;7.110;2022-08-21T11:25:11;100871.88;;;22.70
41654;BMP280;30790;52.030;7.110;2022-08-21T11:30:07;100868.56;;;22.68
41654;BMP280;30790;52.030;7.110;2022-08-21T11:35:39;100876.25;;;22.71
41654;BMP280;30790;52.030;7.110;2022-08-21T11:38:14;100879.56;;;22.73
41654;BMP280;30790;52.030;7.110;2022-08-21T11:41:02;100877.34;;;22.70
41654;BMP280;30790;52.030;7.110;2022-08-21T11:43:41;100878.44;;;22.69
41654;BMP280;30790;52.030;7.110;2022-08-21T11:46:23;100878.38;;;22.64
41654;BMP280;30790;52.030;7.110;2022-08-21T11:51:38;100876.47;;;22.64
41654;BMP280;30790;52.030;7.110;2022-08-21T11:54:46;100876.78;;;22.68
41654;BMP280;30790;52.030;7.110;2022-08-21T12:00:22;100881.13;;;22.64
41654;BMP280;30790;52.030;7.110;2022-08-21T12:02:57;100889.19;;;22.75
41654;BMP280;30790;52.030;7.110;2022-08-21T12:05:33;100886.13;;;22.72
41654;BMP280;30790;52.030;7.110;2022-08-21T12:08:04;100881.25;;;22.74
41654;BMP280;30790;52.030;7.110;2022-08-21T12:10:36;100888.84;;;22.72
41654;BMP280;30790;52.030;7.110;2022-08-21T12:13:26;100869.09;;;22.65
41654;BMP280;30790;52.030;7.110;2022-08-21T12:15:52;100876.25;;;22.71
41654;BMP280;30790;52.030;7.110;2022-08-21T12:18:29;100868.63;;;22.73
41654;BMP280;30790;52.030;7.110;2022-08-21T12:21:46;100884.28;;;22.77
41654;BMP280;30790;52.030;7.110;2022-08-21T12:26:36;100859.03;;;22.70
41654;BMP280;30790;52.030;7.110;2022-08-21T12:34:16;100863.66;;;22.70
41654;BMP280;30790;52.030;7.110;2022-08-21T12:36:45;100866.72;;;22.73
41654;BMP280;30790;52.030;7.110;2022-08-21T12:39:25;100849.13;;;22.64
41654;BMP280;30790;52.030;7.110;2022-08-21T12:42:05;100876.84;;;22.73
41654;BMP280;30790;52.030;7.110;2022-08-21T12:44:38;100873.47;;;22.66
41654;BMP280;30790;52.030;7.110;2022-08-21T12:49:57;100868.41;;;22.74
41654;BMP280;30790;52.030;7.110;2022-08-21T12:52:31;100865.66;;;22.74
41654;BMP280;30790;52.030;7.110;2022-08-21T12:54:57;100847.78;;;22.67
41654;BMP280;30790;52.030;7.110;2022-08-21T12:57:25;100850.47;;;22.62
41654;BMP280;30790;52.030;7.110;2022-08-21T13:00:00;100848.84;;;22.66
41654;BMP280;30790;52.030;7.110;2022-08-21T13:02:32;100863.22;;;22.78
41654;BMP280;30790;52.030;7.110;2022-08-21T13:05:02;100857.94;;;22.71
41654;BMP280;30790;52.030;7.110;2022-08-21T13:07:31;100868.13;;;22.76
41654;BMP280;30790;52.030;7.110;2022-08-21T13:10:00;100871.44;;;22.78
41654;BMP280;30790;52.030;7.110;2022-08-21T13:12:27;100859.28;;;22.69
41654;BMP280;30790;52.030;7.110;2022-08-21T13:14:58;100864.31;;;22.77
41654;BMP280;30790;52.030;7.110;2022-08-21T13:17:25;100870.31;;;22.74
41654;BMP280;30790;52.030;7.110;2022-08-21T13:20:04;100861.56;;;22.77
41654;BMP280;30790;52.030;7.110;2022-08-21T13:22:30;100869.84;;;22.82
41654;BMP280;30790;52.030;7.110;2022-08-21T13:24:55;100860.50;;;22.78
41654;BMP280;30790;52.030;7.110;2022-08-21T13:27:25;100859.47;;;22.84
41654;BMP280;30790;52.030;7.110;2022-08-21T13:30:12;100866.94;;;22.94
41654;BMP280;30790;52.030;7.110;2022-08-21T13:32:43;100857.91;;;22.93
41654;BMP280;30790;52.030;7.110;2022-08-21T13:37:42;100859.13;;;23.02
41654;BMP280;30790;52.030;7.110;2022-08-21T13:40:32;100856.56;;;22.96
41654;BMP280;30790;52.030;7.110;2022-08-21T13:43:11;100846.41;;;22.91
41654;BMP280;30790;52.030;7.110;2022-08-21T13:45:37;100842.63;;;22.97
41654;BMP280;30790;52.030;7.110;2022-08-21T13:48:03;100847.94;;;23.09
41654;BMP280;30790;52.030;7.110;2022-08-21T13:50:29;100843.81;;;23.06
41654;BMP280;30790;52.030;7.110;2022-08-21T13:53:05;100854.28;;;23.15
41654;BMP280;30790;52.030;7.110;2022-08-21T13:55:42;100845.50;;;23.12
41654;BMP280;30790;52.030;7.110;2022-08-21T13:58:09;100843.28;;;23.09
41654;BMP280;30790;52.030;7.110;2022-08-21T14:00:53;100851.50;;;23.09
41654;BMP280;30790;52.030;7.110;2022-08-21T14:03:47;100851.56;;;23.20
41654;BMP280;30790;52.030;7.110;2022-08-21T14:06:14;100838.91;;;23.08
41654;BMP280;30790;52.030;7.110;2022-08-21T14:08:41;100848.28;;;23.18
41654;BMP280;30790;52.030;7.110;2022-08-21T14:11:11;100846.09;;;23.20
41654;BMP280;30790;52.030;7.110;2022-08-21T14:13:41;100837.53;;;23.11
41654;BMP280;30790;52.030;7.110;2022-08-21T14:16:22;100832.38;;;23.15
41654;BMP280;30790;52.030;7.110;2022-08-21T14:19:08;100838.97;;;23.19
41654;BMP280;30790;52.030;7.110;2022-08-21T14:21:41;100832.91;;;23.11
41654;BMP280;30790;52.030;7.110;2022-08-21T14:27:03;100853.78;;;23.23
41654;BMP280;30790;52.030;7.110;2022-08-21T14:29:37;100841.75;;;23.24
41654;BMP280;30790;52.030;7.110;2022-08-21T14:32:25;100841.81;;;23.29
41654;BMP280;30790;52.030;7.110;2022-08-21T14:34:52;100822.00;;;23.22
41654;BMP280;30790;52.030;7.110;2022-08-21T14:37:17;100840.31;;;23.16
41654;BMP280;30790;52.030;7.110;2022-08-21T14:39:43;100833.50;;;23.19
41654;BMP280;30790;52.030;7.110;2022-08-21T14:42:09;100847.28;;;23.29
41654;BMP280;30790;52.030;7.110;2022-08-21T14:44:35;100839.88;;;23.29
41654;BMP280;30790;52.030;7.110;2022-08-21T14:47:00;100824.22;;;23.25
41654;BMP280;30790;52.030;7.110;2022-08-21T14:49:27;100817.16;;;23.29
41654;BMP280;30790;52.030;7.110;2022-08-21T14:51:55;100823.75;;;23.33
41654;BMP280;30790;52.030;7.110;2022-08-21T14:54:26;100822.09;;;23.32
41654;BMP280;30790;52.030;7.110;2022-08-21T14:56:51;100806.69;;;23.26
41654;BMP280;30790;52.030;7.110;2022-08-21T14:59:17;100823.22;;;23.36